Terminal Aerodrome Forecast
Issued by NWS

Home | Current Version | Previous Version | Text Only | Print | Product List | Glossary On
Versions: 1 2 3 4 5 6 7 8 9 10 11 12 13 14
000
FTUS43 KOAX 162300
TAFSNY
TAF
KSNY 162320Z 1700/1724 05014G24KT P6SM SCT060 BKN080
     FM170200 08008KT P6SM SCT080
     FM170500 15006KT P6SM OVC040
     FM170700 17007KT 1SM BR OVC009
     FM171500 17010KT 4SM BR OVC015
     FM171700 16014G24KT P6SM SCT040=

USA.gov is the U.S. government's official web portal to all federal, state and local government web resources and services.